createdAt,value
2024-03-28T00:00:22.907Z,18.50
2024-03-28T00:00:57.229Z,22.40
2024-03-28T00:01:27.828Z,21.40
2024-03-28T00:02:00.276Z,19.50
2024-03-28T00:02:32.696Z,22.50
2024-03-28T00:03:05.119Z,25.90
2024-03-28T00:03:37.600Z,25.60
2024-03-28T00:04:10.032Z,23.10
2024-03-28T00:04:42.455Z,21.20
2024-03-28T00:05:14.962Z,16.60
2024-03-28T00:05:47.437Z,19.30
2024-03-28T00:06:19.872Z,20.50
2024-03-28T00:06:52.292Z,18.50
2024-03-28T00:07:24.747Z,19.70
2024-03-28T00:07:57.204Z,21.10
2024-03-28T00:08:29.630Z,20.70
2024-03-28T00:09:02.054Z,24.10
2024-03-28T00:09:34.469Z,19.80
2024-03-28T00:10:06.938Z,18.50
2024-03-28T00:10:39.447Z,17.80
2024-03-28T00:11:11.862Z,19.00
2024-03-28T00:11:44.334Z,20.70
2024-03-28T00:12:16.779Z,20.70
2024-03-28T00:12:49.252Z,21.00
2024-03-28T00:13:21.714Z,19.70
2024-03-28T00:13:54.153Z,18.20
2024-03-28T00:14:26.629Z,19.20
2024-03-28T00:14:59.075Z,18.30
2024-03-28T00:15:31.565Z,19.10
2024-03-28T00:16:04.019Z,20.20
2024-03-28T00:16:36.447Z,19.30
2024-03-28T00:17:08.910Z,18.50
2024-03-28T00:17:41.387Z,21.80
2024-03-28T00:18:13.846Z,23.70
2024-03-28T00:18:46.301Z,23.10
2024-03-28T00:19:26.742Z,20.00
2024-03-28T00:19:51.168Z,16.20
2024-03-28T00:20:23.623Z,17.80
2024-03-28T00:20:56.067Z,18.30
2024-03-28T00:21:28.506Z,21.90
2024-03-28T00:22:00.952Z,20.20
2024-03-28T00:22:33.422Z,18.60
2024-03-28T00:23:05.876Z,18.70
2024-03-28T00:23:38.301Z,17.40
2024-03-28T00:24:10.723Z,21.80
2024-03-28T00:24:43.202Z,19.70
2024-03-28T00:25:15.665Z,16.60
2024-03-28T00:25:48.105Z,18.00
2024-03-28T00:26:20.562Z,19.90
2024-03-28T00:26:53.039Z,18.50
2024-03-28T00:27:25.480Z,19.00
2024-03-28T00:27:57.894Z,16.50
2024-03-28T00:28:30.386Z,18.50
2024-03-28T00:29:02.847Z,21.90
2024-03-28T00:29:35.271Z,18.30
2024-03-28T00:30:07.749Z,14.60
2024-03-28T00:30:40.218Z,15.60
2024-03-28T00:31:12.679Z,16.10
2024-03-28T00:31:45.131Z,17.60
2024-03-28T00:32:17.566Z,21.70
2024-03-28T00:32:50.047Z,19.50
2024-03-28T00:33:22.491Z,15.40
2024-03-28T00:33:54.936Z,16.60
2024-03-28T00:34:27.366Z,24.10
2024-03-28T00:34:59.782Z,24.60
2024-03-28T00:35:32.210Z,17.60
2024-03-28T00:36:04.666Z,14.40
2024-03-28T00:36:37.142Z,14.60
2024-03-28T00:37:09.584Z,16.30
2024-03-28T00:37:42.084Z,17.10
2024-03-28T00:38:14.505Z,17.50
2024-03-28T00:38:46.959Z,14.70
2024-03-28T00:39:19.393Z,15.90
2024-03-28T00:39:51.826Z,17.10
2024-03-28T00:40:24.250Z,19.20
2024-03-28T00:40:57.160Z,16.70
2024-03-28T00:41:29.615Z,15.30
2024-03-28T00:42:02.085Z,15.20
2024-03-28T00:42:34.545Z,16.10
2024-03-28T00:43:07.040Z,19.10
2024-03-28T00:43:39.457Z,17.00
2024-03-28T00:44:11.936Z,16.70
2024-03-28T00:44:44.384Z,15.30
2024-03-28T00:45:16.852Z,15.90
2024-03-28T00:45:49.296Z,15.50
2024-03-28T00:46:21.762Z,14.30
2024-03-28T00:46:54.185Z,16.60
2024-03-28T00:47:26.605Z,15.70
2024-03-28T00:47:59.076Z,15.10
2024-03-28T00:48:31.552Z,16.30
2024-03-28T00:49:04.008Z,16.10
2024-03-28T00:49:36.455Z,18.20
2024-03-28T00:50:08.927Z,20.20
2024-03-28T00:50:41.367Z,18.80
2024-03-28T00:51:13.771Z,20.00
2024-03-28T00:51:46.244Z,18.40
2024-03-28T00:52:18.717Z,16.90
2024-03-28T00:52:51.098Z,19.20
2024-03-28T00:53:23.547Z,20.70
2024-03-28T00:53:55.975Z,15.80
2024-03-28T00:54:28.407Z,17.30
2024-03-28T00:55:00.990Z,20.20
2024-03-28T00:55:33.323Z,15.40
2024-03-28T00:56:05.760Z,19.20
2024-03-28T00:56:38.196Z,18.80
2024-03-28T00:57:10.677Z,15.60
2024-03-28T00:57:43.153Z,16.10
2024-03-28T00:58:15.609Z,16.90
2024-03-28T00:58:48.024Z,15.60
2024-03-28T00:59:20.513Z,15.80
2024-03-28T00:59:52.971Z,14.70
2024-03-28T01:00:25.422Z,12.90
2024-03-28T01:00:57.847Z,13.60
2024-03-28T01:01:30.304Z,15.60
2024-03-28T01:02:02.794Z,15.20
2024-03-28T01:02:35.239Z,15.30
2024-03-28T01:03:07.685Z,12.80
2024-03-28T01:03:40.136Z,15.10
2024-03-28T01:04:12.565Z,16.60
2024-03-28T01:04:44.981Z,17.30
2024-03-28T01:05:17.411Z,15.40
2024-03-28T01:05:49.840Z,15.50
2024-03-28T01:06:22.306Z,17.20
2024-03-28T01:06:54.745Z,18.00
2024-03-28T01:07:27.180Z,18.30
2024-03-28T01:07:59.646Z,14.80
2024-03-28T01:08:32.098Z,15.40
2024-03-28T01:09:04.533Z,17.30
2024-03-28T01:09:37.064Z,15.80
2024-03-28T01:10:09.434Z,15.20
2024-03-28T01:10:41.910Z,16.90
2024-03-28T01:11:14.476Z,14.80
2024-03-28T01:11:46.896Z,12.40
2024-03-28T01:12:19.334Z,14.00
2024-03-28T01:12:51.812Z,18.20
2024-03-28T01:13:24.243Z,16.50
2024-03-28T01:13:56.693Z,17.80
2024-03-28T01:14:29.145Z,17.50
2024-03-28T01:15:01.593Z,15.00
2024-03-28T01:15:34.061Z,17.00
2024-03-28T01:16:06.505Z,16.50
2024-03-28T01:16:38.999Z,20.10
2024-03-28T01:17:11.484Z,19.30
2024-03-28T01:17:43.931Z,16.90
2024-03-28T01:18:16.386Z,16.10
2024-03-28T01:18:48.846Z,16.70
2024-03-28T01:19:21.276Z,14.90
2024-03-28T01:19:53.757Z,13.90
2024-03-28T01:20:26.221Z,17.70
2024-03-28T01:20:58.695Z,14.10
2024-03-28T01:21:31.133Z,14.00
2024-03-28T01:22:03.596Z,15.00
2024-03-28T01:22:36.112Z,17.50
2024-03-28T01:23:08.565Z,19.40
2024-03-28T01:23:41.000Z,15.90
2024-03-28T01:24:13.452Z,14.30
2024-03-28T01:24:45.890Z,13.60
2024-03-28T01:25:18.370Z,15.00
2024-03-28T01:25:50.779Z,16.40
2024-03-28T01:26:23.205Z,14.80
2024-03-28T01:26:55.621Z,17.00
2024-03-28T01:27:28.102Z,18.90
2024-03-28T01:28:00.546Z,14.70
2024-03-28T01:28:33.030Z,14.10
2024-03-28T01:29:05.508Z,15.60
2024-03-28T01:29:37.958Z,14.60
2024-03-28T01:30:10.395Z,15.00
2024-03-28T01:30:42.823Z,17.00
2024-03-28T01:31:15.300Z,13.80
2024-03-28T01:31:47.773Z,13.40
2024-03-28T01:32:20.230Z,12.90
2024-03-28T01:32:52.647Z,12.30
2024-03-28T01:33:25.084Z,15.00
2024-03-28T01:33:57.496Z,17.70
2024-03-28T01:34:29.939Z,15.40
2024-03-28T01:35:02.388Z,14.90
2024-03-28T01:35:34.845Z,13.20
2024-03-28T01:36:07.289Z,13.20
2024-03-28T01:36:39.758Z,15.20
2024-03-28T01:37:13.634Z,12.60
2024-03-28T01:37:44.669Z,9.50
2024-03-28T01:38:17.098Z,10.40
2024-03-28T01:38:49.529Z,13.00
2024-03-28T01:39:22.012Z,13.50
2024-03-28T01:39:54.462Z,13.20
2024-03-28T01:40:26.920Z,16.70
2024-03-28T01:40:59.348Z,16.60
2024-03-28T01:41:31.806Z,14.20
2024-03-28T01:42:04.272Z,14.10
2024-03-28T01:42:36.714Z,12.00
2024-03-28T01:43:09.153Z,11.50
2024-03-28T01:43:41.578Z,12.30
2024-03-28T01:44:14.046Z,13.40
2024-03-28T01:44:46.502Z,13.80
2024-03-28T01:45:18.968Z,17.20
2024-03-28T01:45:51.415Z,18.80
2024-03-28T01:46:35.400Z,13.70
2024-03-28T01:47:17.146Z,15.10
2024-03-28T01:47:42.352Z,15.90
2024-03-28T01:48:02.854Z,12.20
2024-03-28T01:48:33.721Z,13.90
2024-03-28T01:49:06.214Z,13.40
2024-03-28T01:49:38.639Z,14.00
2024-03-28T01:50:11.111Z,13.70
2024-03-28T01:50:43.564Z,11.30
2024-03-28T01:51:16.035Z,14.90
2024-03-28T01:51:48.503Z,19.20
2024-03-28T01:52:20.950Z,15.20
2024-03-28T01:52:53.413Z,15.60
2024-03-28T01:53:25.936Z,15.20
2024-03-28T01:53:58.377Z,15.20
2024-03-28T01:54:30.805Z,17.70
2024-03-28T01:55:03.263Z,13.30
2024-03-28T01:55:35.722Z,13.30
2024-03-28T01:56:08.162Z,15.60
2024-03-28T01:56:40.639Z,12.80
2024-03-28T01:57:14.760Z,13.10
2024-03-28T01:57:45.540Z,15.50
2024-03-28T01:58:18.052Z,13.90
2024-03-28T01:58:50.466Z,12.60
2024-03-28T01:59:22.901Z,13.20
2024-03-28T01:59:55.333Z,15.50
2024-03-28T02:00:27.806Z,14.10
2024-03-28T02:01:00.244Z,13.60
2024-03-28T02:01:32.751Z,13.00
2024-03-28T02:02:05.106Z,14.10
2024-03-28T02:02:37.584Z,16.60
2024-03-28T02:03:10.019Z,17.50
2024-03-28T02:03:42.440Z,16.70
2024-03-28T02:04:14.965Z,18.70
2024-03-28T02:04:47.382Z,15.60
2024-03-28T02:05:19.808Z,14.40
2024-03-28T02:05:52.283Z,15.00
2024-03-28T02:06:24.779Z,14.90
2024-03-28T02:06:57.215Z,15.60
2024-03-28T02:07:29.652Z,15.00
2024-03-28T02:08:02.185Z,15.00
2024-03-28T02:08:34.641Z,14.60
2024-03-28T02:09:07.118Z,13.20
2024-03-28T02:09:39.584Z,14.30
2024-03-28T02:10:12.027Z,15.70
2024-03-28T02:10:44.497Z,15.40
2024-03-28T02:11:16.951Z,14.00
2024-03-28T02:11:49.410Z,12.80
2024-03-28T02:12:21.962Z,15.00
2024-03-28T02:12:54.411Z,15.40
2024-03-28T02:13:26.886Z,16.70
2024-03-28T02:13:59.303Z,17.90
2024-03-28T02:14:31.757Z,15.20
2024-03-28T02:15:04.235Z,14.90
2024-03-28T02:15:36.693Z,15.20
2024-03-28T02:16:09.172Z,12.20
2024-03-28T02:16:41.641Z,12.40
2024-03-28T02:17:14.081Z,15.60
2024-03-28T02:17:46.632Z,17.10
2024-03-28T02:18:18.971Z,16.00
2024-03-28T02:18:51.419Z,14.60
2024-03-28T02:19:23.842Z,14.90
2024-03-28T02:19:56.307Z,15.30
2024-03-28T02:20:28.740Z,20.80
2024-03-28T02:21:01.201Z,22.80
2024-03-28T02:21:33.628Z,15.40
2024-03-28T02:22:06.069Z,14.20
2024-03-28T02:22:38.549Z,17.40
2024-03-28T02:23:10.993Z,15.60
2024-03-28T02:23:43.444Z,23.60
2024-03-28T02:24:15.886Z,23.30
2024-03-28T02:24:48.474Z,16.30
2024-03-28T02:25:21.027Z,16.20
2024-03-28T02:25:53.526Z,15.40
2024-03-28T02:26:26.114Z,16.30
2024-03-28T02:26:58.618Z,15.60
2024-03-28T02:27:31.233Z,17.00
2024-03-28T02:28:03.767Z,18.00
2024-03-28T02:28:36.297Z,15.50
2024-03-28T02:29:08.766Z,16.60
2024-03-28T02:29:41.302Z,19.20
2024-03-28T02:30:13.827Z,17.00
2024-03-28T02:30:46.463Z,16.10
2024-03-28T02:31:19.097Z,14.80
2024-03-28T02:31:51.691Z,15.50
2024-03-28T02:32:32.708Z,15.20
2024-03-28T02:33:09.829Z,17.00
2024-03-28T02:33:42.306Z,13.30
2024-03-28T02:34:14.780Z,14.80
2024-03-28T02:34:47.237Z,14.90
2024-03-28T02:35:19.711Z,15.40
2024-03-28T02:35:52.165Z,19.00
2024-03-28T02:36:24.614Z,16.90
2024-03-28T02:36:57.035Z,16.30
2024-03-28T02:37:29.497Z,16.70
2024-03-28T02:38:01.924Z,13.40
2024-03-28T02:38:34.381Z,13.80
2024-03-28T02:39:06.847Z,14.30
2024-03-28T02:39:39.301Z,14.60
2024-03-28T02:40:11.793Z,14.40
2024-03-28T02:40:44.251Z,15.60
2024-03-28T02:41:16.697Z,18.20
2024-03-28T02:41:49.187Z,16.60
2024-03-28T02:42:21.663Z,15.50
2024-03-28T02:42:54.127Z,15.50
2024-03-28T02:43:26.609Z,14.50
2024-03-28T02:43:59.069Z,15.70
2024-03-28T02:44:31.504Z,16.90
2024-03-28T02:45:03.969Z,15.40
2024-03-28T02:45:36.421Z,15.00
2024-03-28T02:46:08.854Z,15.10
2024-03-28T02:46:41.291Z,14.40
2024-03-28T02:47:13.719Z,14.60
2024-03-28T02:47:46.160Z,16.60
2024-03-28T02:48:18.604Z,15.40
2024-03-28T02:48:51.038Z,13.50
2024-03-28T02:49:23.504Z,13.50
2024-03-28T02:49:55.985Z,16.10
2024-03-28T02:50:28.427Z,14.40
2024-03-28T02:51:00.855Z,13.60
2024-03-28T02:51:33.276Z,15.50
2024-03-28T02:52:05.741Z,17.20
2024-03-28T02:52:38.165Z,15.30
2024-03-28T02:53:10.600Z,13.20
2024-03-28T02:53:43.061Z,14.90
2024-03-28T02:54:15.520Z,13.80
2024-03-28T02:54:47.973Z,15.70
2024-03-28T02:55:20.428Z,13.60
2024-03-28T02:55:52.821Z,14.00
2024-03-28T02:56:25.251Z,12.40
2024-03-28T02:56:57.721Z,11.70
2024-03-28T02:57:30.221Z,14.90
2024-03-28T02:58:02.659Z,13.00
2024-03-28T02:58:35.132Z,11.90
2024-03-28T02:59:07.619Z,12.50
2024-03-28T02:59:40.057Z,13.60
2024-03-28T03:00:12.500Z,12.90
2024-03-28T03:00:44.929Z,12.50
2024-03-28T03:01:17.398Z,13.70
2024-03-28T03:01:49.824Z,11.30
2024-03-28T03:02:22.286Z,13.60
2024-03-28T03:02:54.749Z,15.90
2024-03-28T03:03:27.203Z,13.70
2024-03-28T03:03:59.653Z,12.80
2024-03-28T03:04:32.095Z,12.10
2024-03-28T03:05:04.519Z,11.10
2024-03-28T03:05:36.954Z,11.20
2024-03-28T03:06:09.407Z,13.30
2024-03-28T03:06:44.461Z,13.10
2024-03-28T03:07:14.320Z,12.60
2024-03-28T03:07:46.792Z,11.50
2024-03-28T03:08:19.246Z,11.10
2024-03-28T03:08:51.744Z,9.70
2024-03-28T03:09:24.240Z,12.50
2024-03-28T03:09:56.691Z,15.20
2024-03-28T03:10:29.119Z,12.40
2024-03-28T03:11:01.582Z,11.40
2024-03-28T03:11:34.070Z,16.20
2024-03-28T03:12:06.534Z,15.10
2024-03-28T03:12:38.980Z,11.00
2024-03-28T03:13:11.431Z,11.30
2024-03-28T03:13:43.855Z,10.30
2024-03-28T03:14:16.312Z,12.20
2024-03-28T03:14:48.786Z,13.20
2024-03-28T03:15:21.216Z,12.80
2024-03-28T03:15:53.677Z,13.40
2024-03-28T03:16:26.117Z,11.60
2024-03-28T03:16:58.593Z,12.50
2024-03-28T03:17:31.059Z,13.90
2024-03-28T03:18:03.596Z,12.70
2024-03-28T03:18:36.071Z,10.00
2024-03-28T03:19:08.482Z,8.50
2024-03-28T03:19:40.941Z,10.30
2024-03-28T03:20:13.421Z,8.70
2024-03-28T03:20:45.879Z,7.50
2024-03-28T03:21:18.347Z,10.10
2024-03-28T03:21:50.797Z,11.70
2024-03-28T03:22:23.254Z,10.70
2024-03-28T03:22:55.686Z,9.90
2024-03-28T03:23:28.137Z,15.10
2024-03-28T03:24:00.565Z,15.20
2024-03-28T03:24:33.161Z,9.80
2024-03-28T03:25:05.471Z,11.60
2024-03-28T03:25:37.971Z,11.30
2024-03-28T03:26:10.390Z,10.30
2024-03-28T03:26:42.820Z,9.10
2024-03-28T03:27:15.270Z,10.00
2024-03-28T03:27:47.745Z,10.90
2024-03-28T03:28:20.246Z,10.40
2024-03-28T03:28:52.648Z,11.80
2024-03-28T03:29:25.090Z,12.20
2024-03-28T03:29:57.532Z,9.00
2024-03-28T03:30:29.987Z,11.10
2024-03-28T03:31:02.407Z,11.60
2024-03-28T03:31:34.875Z,9.70
2024-03-28T03:32:07.403Z,11.00
2024-03-28T03:32:39.824Z,13.50
2024-03-28T03:33:12.252Z,10.80
2024-03-28T03:33:44.731Z,9.80
2024-03-28T03:34:17.187Z,10.30
2024-03-28T03:34:49.625Z,12.60
2024-03-28T03:35:22.041Z,12.00
2024-03-28T03:35:54.472Z,9.70
2024-03-28T03:36:26.911Z,10.70
2024-03-28T03:36:59.362Z,10.80
2024-03-28T03:37:31.796Z,10.40
2024-03-28T03:38:04.248Z,11.00
2024-03-28T03:38:36.677Z,12.50
2024-03-28T03:39:09.145Z,12.50
2024-03-28T03:39:41.525Z,11.80
2024-03-28T03:40:13.976Z,15.20
2024-03-28T03:40:46.438Z,13.40
2024-03-28T03:41:18.880Z,10.40
2024-03-28T03:41:51.333Z,10.60
2024-03-28T03:42:23.796Z,7.90
2024-03-28T03:42:56.313Z,8.80
2024-03-28T03:43:28.742Z,9.90
2024-03-28T03:44:01.163Z,10.70
2024-03-28T03:44:33.639Z,14.00
2024-03-28T03:45:06.081Z,13.30
2024-03-28T03:45:38.576Z,9.50
2024-03-28T03:46:11.051Z,9.70
2024-03-28T03:46:45.013Z,10.70
2024-03-28T03:47:15.940Z,10.30
2024-03-28T03:47:48.370Z,11.60
2024-03-28T03:48:20.870Z,10.40
2024-03-28T03:48:53.322Z,8.30
2024-03-28T03:49:25.761Z,11.00
2024-03-28T03:49:58.195Z,11.70
2024-03-28T03:50:30.623Z,10.70
2024-03-28T03:51:03.119Z,11.40
2024-03-28T03:51:35.481Z,10.60
2024-03-28T03:52:08.005Z,8.40
2024-03-28T03:52:40.449Z,8.90
2024-03-28T03:53:12.863Z,9.00
2024-03-28T03:53:45.324Z,9.50
2024-03-28T03:54:17.792Z,11.50
2024-03-28T03:54:50.287Z,10.50
2024-03-28T03:55:22.785Z,7.90
2024-03-28T03:55:55.180Z,7.10
2024-03-28T03:56:27.612Z,9.20
2024-03-28T03:57:00.107Z,10.00
2024-03-28T03:57:32.567Z,9.80
2024-03-28T03:58:05.059Z,8.60
2024-03-28T03:58:37.520Z,9.90
2024-03-28T03:59:09.976Z,12.30
2024-03-28T03:59:42.441Z,12.70
2024-03-28T04:00:14.902Z,11.20
2024-03-28T04:00:47.372Z,11.50
2024-03-28T04:01:19.838Z,10.00
2024-03-28T04:01:52.311Z,10.60
2024-03-28T04:02:24.796Z,12.10
2024-03-28T04:02:57.238Z,11.00
2024-03-28T04:03:29.665Z,9.30
2024-03-28T04:04:02.107Z,8.90
2024-03-28T04:04:34.558Z,9.00
2024-03-28T04:05:07.003Z,11.10
2024-03-28T04:05:39.469Z,12.40
2024-03-28T04:06:11.910Z,9.90
2024-03-28T04:06:44.359Z,8.90
2024-03-28T04:07:16.791Z,9.90
2024-03-28T04:07:49.252Z,10.40
2024-03-28T04:08:21.720Z,11.90
2024-03-28T04:08:54.173Z,10.80
2024-03-28T04:09:26.653Z,8.50
2024-03-28T04:09:59.125Z,9.40
2024-03-28T04:10:31.606Z,8.30
2024-03-28T04:11:04.069Z,9.00
2024-03-28T04:11:36.527Z,9.60
2024-03-28T04:12:08.982Z,10.50
2024-03-28T04:12:41.436Z,11.20
2024-03-28T04:13:13.885Z,8.10
2024-03-28T04:13:46.371Z,8.40
2024-03-28T04:14:18.812Z,7.80
2024-03-28T04:14:51.262Z,8.60
2024-03-28T04:15:23.681Z,11.20
2024-03-28T04:15:56.102Z,11.70
2024-03-28T04:16:28.583Z,10.00
2024-03-28T04:17:00.997Z,6.40
2024-03-28T04:17:33.433Z,8.10
2024-03-28T04:18:05.866Z,9.00
2024-03-28T04:18:38.294Z,9.60
2024-03-28T04:19:10.758Z,10.30
2024-03-28T04:19:43.214Z,8.90
2024-03-28T04:20:15.639Z,8.70
2024-03-28T04:20:48.056Z,10.20
2024-03-28T04:21:20.532Z,9.80
2024-03-28T04:21:52.987Z,9.40
2024-03-28T04:22:25.445Z,7.90
2024-03-28T04:22:57.927Z,7.40
2024-03-28T04:23:30.431Z,9.10
2024-03-28T04:24:02.925Z,10.60
2024-03-28T04:24:35.395Z,11.40
2024-03-28T04:25:07.816Z,11.10
2024-03-28T04:25:40.253Z,11.90
2024-03-28T04:26:12.688Z,11.70
2024-03-28T04:26:45.159Z,10.70
2024-03-28T04:27:17.616Z,10.90
2024-03-28T04:27:50.053Z,11.40
2024-03-28T04:28:22.508Z,10.60
2024-03-28T04:28:54.924Z,12.40
2024-03-28T04:29:28.429Z,11.50
2024-03-28T04:30:01.978Z,8.80
2024-03-28T04:30:32.327Z,9.10
2024-03-28T04:31:04.803Z,8.50
2024-03-28T04:31:37.259Z,10.90
2024-03-28T04:32:09.680Z,12.70
2024-03-28T04:32:42.106Z,9.60
2024-03-28T04:33:14.564Z,8.10
2024-03-28T04:33:47.016Z,9.10
2024-03-28T04:34:19.541Z,10.80
2024-03-28T04:34:51.937Z,11.90
2024-03-28T04:35:24.420Z,10.80
2024-03-28T04:35:56.841Z,10.40
2024-03-28T04:36:29.276Z,9.10
2024-03-28T04:37:01.704Z,9.20
2024-03-28T04:37:34.134Z,10.50
2024-03-28T04:38:06.602Z,9.70
2024-03-28T04:38:39.073Z,11.80
2024-03-28T04:39:11.507Z,12.10
2024-03-28T04:39:43.956Z,10.20
2024-03-28T04:40:16.421Z,9.90
2024-03-28T04:40:48.883Z,10.00
2024-03-28T04:41:21.371Z,9.00
2024-03-28T04:41:53.839Z,9.90
2024-03-28T04:42:26.358Z,10.20
2024-03-28T04:42:59.073Z,10.20
2024-03-28T04:43:31.517Z,10.00
2024-03-28T04:44:03.971Z,8.80
2024-03-28T04:44:36.429Z,11.20
2024-03-28T04:45:08.862Z,9.80
2024-03-28T04:45:41.326Z,7.90
2024-03-28T04:46:13.790Z,9.20
2024-03-28T04:46:46.213Z,9.00
2024-03-28T04:47:18.678Z,8.80
2024-03-28T04:47:51.102Z,9.60
2024-03-28T04:48:23.541Z,12.70
2024-03-28T04:48:55.984Z,11.00
2024-03-28T04:49:29.843Z,8.50
2024-03-28T04:50:00.871Z,8.80
2024-03-28T04:50:33.341Z,8.90
2024-03-28T04:51:05.829Z,10.00
2024-03-28T04:51:38.281Z,11.30
2024-03-28T04:52:10.708Z,12.50
2024-03-28T04:52:43.196Z,10.00
2024-03-28T04:53:15.619Z,7.70
2024-03-28T04:53:48.100Z,9.70
2024-03-28T04:54:20.580Z,10.20
2024-03-28T04:54:53.072Z,11.60
2024-03-28T04:55:27.747Z,10.50
2024-03-28T04:55:57.943Z,7.80
2024-03-28T04:56:30.426Z,8.20
2024-03-28T04:57:02.884Z,8.10
2024-03-28T04:57:35.332Z,8.10
2024-03-28T04:58:07.791Z,11.20
2024-03-28T04:58:40.244Z,13.00
2024-03-28T04:59:12.685Z,10.10
2024-03-28T04:59:45.162Z,9.70
2024-03-28T05:00:17.633Z,9.90
2024-03-28T05:00:50.119Z,9.90
2024-03-28T05:01:22.572Z,12.80
2024-03-28T05:01:55.022Z,11.30
2024-03-28T05:02:27.490Z,9.50
2024-03-28T05:02:59.908Z,8.60
2024-03-28T05:03:32.360Z,9.60
2024-03-28T05:04:04.835Z,10.20
2024-03-28T05:04:37.295Z,9.30
2024-03-28T05:05:09.743Z,9.50
2024-03-28T05:05:42.205Z,9.00
2024-03-28T05:06:14.662Z,9.50
2024-03-28T05:06:47.132Z,11.60
2024-03-28T05:07:19.570Z,11.50
2024-03-28T05:07:51.993Z,9.80
2024-03-28T05:08:24.442Z,10.50
2024-03-28T05:08:56.859Z,13.50
2024-03-28T05:09:29.302Z,15.40
2024-03-28T05:10:01.763Z,13.70
2024-03-28T05:10:34.228Z,11.90
2024-03-28T05:11:06.673Z,16.00
2024-03-28T05:11:39.104Z,14.90
2024-03-28T05:12:11.558Z,13.70
2024-03-28T05:12:44.009Z,14.50
2024-03-28T05:13:16.440Z,10.70
2024-03-28T05:13:48.905Z,14.90
2024-03-28T05:14:21.311Z,16.60
2024-03-28T05:14:53.760Z,13.30
2024-03-28T05:15:26.186Z,11.50
2024-03-28T05:15:58.622Z,11.70
2024-03-28T05:16:31.075Z,9.80
2024-03-28T05:17:03.558Z,12.20
2024-03-28T05:17:35.945Z,11.10
2024-03-28T05:18:08.426Z,10.90
2024-03-28T05:18:40.897Z,13.20
2024-03-28T05:19:13.437Z,15.80
2024-03-28T05:19:45.867Z,14.90
2024-03-28T05:20:18.314Z,13.60
2024-03-28T05:20:50.728Z,12.20
2024-03-28T05:21:23.200Z,12.50
2024-03-28T05:21:55.655Z,15.20
2024-03-28T05:22:28.101Z,13.20
2024-03-28T05:23:00.555Z,10.50
2024-03-28T05:23:33.000Z,11.40
2024-03-28T05:24:05.452Z,11.80
2024-03-28T05:24:37.906Z,14.50
2024-03-28T05:25:10.379Z,13.90
2024-03-28T05:25:42.813Z,13.20
2024-03-28T05:26:15.247Z,13.40
2024-03-28T05:26:47.700Z,14.20
2024-03-28T05:27:20.128Z,12.00
2024-03-28T05:27:52.559Z,11.20
2024-03-28T05:28:25.076Z,13.50
2024-03-28T05:28:57.534Z,16.60
2024-03-28T05:29:30.024Z,18.20
2024-03-28T05:30:02.497Z,14.30
2024-03-28T05:30:34.945Z,10.40
2024-03-28T05:31:07.430Z,10.90
2024-03-28T05:31:39.854Z,14.20
2024-03-28T05:32:12.293Z,15.90
2024-03-28T05:32:44.722Z,13.00
2024-03-28T05:33:17.173Z,11.60
2024-03-28T05:33:49.624Z,13.40
2024-03-28T05:34:22.143Z,14.40
2024-03-28T05:34:54.621Z,12.50
2024-03-28T05:35:27.059Z,11.60
2024-03-28T05:35:59.531Z,12.20
2024-03-28T05:36:31.974Z,12.60
2024-03-28T05:37:04.435Z,11.90
2024-03-28T05:37:36.901Z,10.70
2024-03-28T05:38:09.361Z,11.00
2024-03-28T05:38:41.833Z,11.10
2024-03-28T05:39:14.293Z,10.40
2024-03-28T05:39:46.738Z,9.10
2024-03-28T05:40:19.194Z,9.00
2024-03-28T05:40:51.640Z,12.70
2024-03-28T05:41:24.091Z,12.40
2024-03-28T05:41:56.552Z,12.30
2024-03-28T05:42:28.986Z,13.50
2024-03-28T05:43:01.433Z,13.60
2024-03-28T05:43:33.905Z,11.80
2024-03-28T05:44:06.335Z,12.20
2024-03-28T05:44:38.754Z,12.70
2024-03-28T05:45:11.190Z,11.60
2024-03-28T05:45:43.697Z,12.10
2024-03-28T05:46:16.139Z,12.40
2024-03-28T05:46:48.602Z,11.20
2024-03-28T05:47:21.032Z,10.70
2024-03-28T05:47:53.488Z,11.10
2024-03-28T05:48:25.958Z,11.90
2024-03-28T05:48:58.382Z,12.00
2024-03-28T05:49:30.843Z,12.20
2024-03-28T05:50:03.308Z,14.20
2024-03-28T05:50:35.776Z,15.00
2024-03-28T05:51:08.214Z,13.80
2024-03-28T05:51:40.673Z,12.70
2024-03-28T05:52:13.155Z,11.70
2024-03-28T05:52:45.603Z,12.20
2024-03-28T05:53:18.058Z,12.20
2024-03-28T05:53:50.510Z,12.00
2024-03-28T05:54:22.962Z,10.60
2024-03-28T05:54:55.450Z,10.10
2024-03-28T05:55:27.897Z,13.10
2024-03-28T05:56:00.388Z,14.50
2024-03-28T05:56:32.863Z,13.90
2024-03-28T05:57:05.326Z,14.20
2024-03-28T05:57:37.784Z,14.50
2024-03-28T05:58:10.251Z,15.40
2024-03-28T05:58:42.711Z,11.50
2024-03-28T05:59:15.171Z,11.60
2024-03-28T05:59:47.622Z,12.60
2024-03-28T06:00:20.036Z,10.50
2024-03-28T06:00:52.503Z,11.40
2024-03-28T06:01:24.994Z,14.50
2024-03-28T06:01:57.496Z,13.50
2024-03-28T06:02:29.994Z,11.70
2024-03-28T06:03:02.477Z,10.70
2024-03-28T06:03:34.955Z,10.00
2024-03-28T06:04:07.415Z,11.50
2024-03-28T06:04:39.859Z,8.70
2024-03-28T06:05:12.314Z,9.30
2024-03-28T06:05:44.787Z,11.60
2024-03-28T06:06:17.290Z,13.30
2024-03-28T06:06:49.759Z,13.10
2024-03-28T06:07:22.239Z,12.20
2024-03-28T06:07:54.698Z,12.70
2024-03-28T06:08:27.157Z,15.00
2024-03-28T06:08:59.610Z,12.30
2024-03-28T06:09:32.032Z,10.10
2024-03-28T06:10:04.525Z,10.30
2024-03-28T06:10:36.965Z,11.70
2024-03-28T06:11:09.411Z,11.30
2024-03-28T06:11:41.847Z,10.90
2024-03-28T06:12:14.332Z,12.20
2024-03-28T06:12:46.808Z,12.10
2024-03-28T06:13:19.312Z,11.10
2024-03-28T06:13:51.755Z,12.70
2024-03-28T06:14:24.225Z,14.90
2024-03-28T06:14:56.660Z,12.50
2024-03-28T06:15:29.120Z,11.70
2024-03-28T06:16:01.601Z,11.20
2024-03-28T06:16:34.031Z,10.30
2024-03-28T06:17:06.458Z,11.90
2024-03-28T06:17:38.960Z,10.70
2024-03-28T06:18:11.395Z,9.90
2024-03-28T06:18:43.810Z,12.80
2024-03-28T06:19:16.241Z,9.10
2024-03-28T06:19:48.652Z,12.40
2024-03-28T06:20:21.149Z,13.90
2024-03-28T06:20:53.653Z,11.60
2024-03-28T06:21:26.097Z,13.00
2024-03-28T06:21:58.544Z,14.60
2024-03-28T06:22:30.982Z,15.60
2024-03-28T06:23:03.437Z,14.10
2024-03-28T06:23:35.936Z,14.00
2024-03-28T06:24:08.370Z,14.60
2024-03-28T06:24:40.863Z,11.40
2024-03-28T06:25:13.273Z,15.80
2024-03-28T06:25:45.732Z,14.60
2024-03-28T06:26:18.193Z,14.30
2024-03-28T06:26:50.652Z,15.30
2024-03-28T06:27:23.085Z,10.80
2024-03-28T06:27:55.494Z,10.20
2024-03-28T06:28:27.979Z,10.10
2024-03-28T06:29:00.370Z,8.20
2024-03-28T06:29:32.829Z,11.00
2024-03-28T06:30:05.310Z,11.60
2024-03-28T06:30:37.786Z,10.70
2024-03-28T06:31:10.273Z,13.40
2024-03-28T06:31:42.726Z,13.50
2024-03-28T06:32:15.197Z,11.30
2024-03-28T06:32:47.605Z,11.40
2024-03-28T06:33:20.041Z,12.30
2024-03-28T06:33:52.536Z,12.90
2024-03-28T06:34:25.028Z,15.40
2024-03-28T06:34:57.441Z,18.70
2024-03-28T06:35:29.916Z,12.80
2024-03-28T06:36:02.358Z,9.10
2024-03-28T06:36:34.792Z,10.80
2024-03-28T06:37:07.239Z,12.00
2024-03-28T06:37:39.724Z,13.30
2024-03-28T06:38:12.181Z,13.90
2024-03-28T06:38:44.663Z,13.40
2024-03-28T06:39:17.099Z,12.60
2024-03-28T06:39:49.527Z,10.40
2024-03-28T06:40:22.059Z,9.80
2024-03-28T06:40:54.456Z,12.90
2024-03-28T06:41:26.918Z,14.90
2024-03-28T06:41:59.375Z,11.70
2024-03-28T06:42:31.844Z,8.30
2024-03-28T06:43:04.274Z,8.90
2024-03-28T06:43:36.689Z,11.20
2024-03-28T06:44:09.117Z,14.00
2024-03-28T06:44:41.530Z,11.70
2024-03-28T06:45:14.022Z,11.50
2024-03-28T06:45:46.481Z,10.10
2024-03-28T06:46:18.952Z,10.50
2024-03-28T06:46:51.423Z,13.10
2024-03-28T06:47:23.915Z,12.80
2024-03-28T06:47:56.356Z,13.40
2024-03-28T06:48:28.812Z,12.60
2024-03-28T06:49:01.263Z,11.20
2024-03-28T06:49:33.696Z,15.10
2024-03-28T06:50:06.121Z,13.70
2024-03-28T06:50:38.562Z,9.90
2024-03-28T06:51:11.066Z,12.20
2024-03-28T06:51:43.492Z,11.60
2024-03-28T06:52:15.916Z,10.30
2024-03-28T06:52:48.368Z,11.40
2024-03-28T06:53:20.826Z,11.50
2024-03-28T06:53:53.273Z,12.50
2024-03-28T06:54:25.722Z,11.00
2024-03-28T06:54:58.157Z,10.00
2024-03-28T06:55:30.652Z,9.30
2024-03-28T06:56:03.071Z,9.70
2024-03-28T06:56:35.545Z,9.70
2024-03-28T06:57:07.991Z,9.80
2024-03-28T06:57:40.433Z,9.10
2024-03-28T06:58:12.971Z,7.60
2024-03-28T06:58:45.432Z,8.00
2024-03-28T06:59:17.887Z,8.50
2024-03-28T06:59:50.320Z,9.00
2024-03-28T07:00:22.757Z,8.90